Time;durP1;ratioP1;P1;durP2;ratioP2;P2;SDS_P1;SDS_P2;PMS_P1;PMS_P2;Temp;Humidity;BMP_temperature;BMP_pressure;BME280_temperature;BME280_humidity;BME280_pressure;Samples;Min_cycle;Max_cycle;Signal;HPM_P1;HPM_P2
2023/06/08 00:01:32;;;;;;;;;;;10.90;76.10;;;;;;6162044;23;19919;-89
2023/06/08 00:04:07;;;;;;;;;;;10.90;76.10;;;;;;6161343;23;19939;-89
2023/06/08 00:06:33;;;;;;;;;;;10.90;76.10;;;;;;6157490;23;21091;-90
2023/06/08 00:09:03;;;;;;;;;;;10.90;76.10;;;;;;6159232;23;19946;-88
2023/06/08 00:11:30;;;;;;;;;;;10.90;76.00;;;;;;6162746;23;19991;-88
2023/06/08 00:13:55;;;;;;;;;;;10.90;75.70;;;;;;6146944;23;20326;-87
2023/06/08 00:16:23;;;;;;;;;;;10.90;76.10;;;;;;6158991;23;19973;-90
2023/06/08 00:18:56;;;;;;;;;;;10.90;76.00;;;;;;6157496;23;19934;-89
2023/06/08 00:21:26;;;;;;;;;;;10.90;76.10;;;;;;6187776;23;19924;-89
2023/06/08 00:23:52;;;;;;;;;;;10.90;76.10;;;;;;6171298;23;19916;-88
2023/06/08 00:26:18;;;;;;;;;;;10.90;76.10;;;;;;6160326;23;19916;-89
2023/06/08 00:28:46;;;;;;;;;;;10.90;76.20;;;;;;6144463;23;19977;-88
2023/06/08 00:31:12;;;;;;;;;;;10.90;76.20;;;;;;6162523;23;20378;-88
2023/06/08 00:33:37;;;;;;;;;;;10.90;76.20;;;;;;6185876;23;19923;-88
2023/06/08 00:36:04;;;;;;;;;;;10.90;76.10;;;;;;6187395;23;19923;-89
2023/06/08 00:38:30;;;;;;;;;;;10.90;76.20;;;;;;6154698;23;19916;-88
2023/06/08 00:40:59;;;;;;;;;;;10.90;76.00;;;;;;6137711;23;20315;-90
2023/06/08 00:43:24;;;;;;;;;;;10.90;76.10;;;;;;6186254;23;19916;-88
2023/06/08 00:45:50;;;;;;;;;;;10.80;76.10;;;;;;6162981;23;20345;-88
2023/06/08 00:48:16;;;;;;;;;;;10.80;75.90;;;;;;6163827;23;20010;-88
2023/06/08 00:50:43;;;;;;;;;;;10.80;76.10;;;;;;6162633;23;19955;-88
2023/06/08 00:53:08;;;;;;;;;;;10.80;76.10;;;;;;6123474;23;19936;-88
2023/06/08 00:55:35;;;;;;;;;;;10.70;76.20;;;;;;6137914;23;19931;-89
2023/06/08 00:58:04;;;;;;;;;;;10.70;76.20;;;;;;6152580;23;19935;-88
2023/06/08 01:00:30;;;;;;;;;;;10.70;76.50;;;;;;6162096;23;20302;-89
2023/06/08 01:02:56;;;;;;;;;;;10.70;76.50;;;;;;6160862;23;20394;-88
2023/06/08 01:05:23;;;;;;;;;;;10.80;76.40;;;;;;6162348;23;19920;-88
2023/06/08 01:07:57;;;;;;;;;;;10.80;76.50;;;;;;6139208;23;19922;-87
2023/06/08 01:10:29;;;;;;;;;;;10.80;76.30;;;;;;6187334;23;19919;-88
2023/06/08 01:13:19;;;;;;;;;;;10.80;76.40;;;;;;6184976;23;19916;-89
2023/06/08 01:15:48;;;;;;;;;;;10.80;76.60;;;;;;6162466;23;19916;-87
2023/06/08 01:18:17;;;;;;;;;;;10.80;76.40;;;;;;6153802;23;19923;-88
2023/06/08 01:21:02;;;;;;;;;;;10.80;76.50;;;;;;6187415;23;19942;-88
2023/06/08 01:23:37;;;;;;;;;;;10.80;76.20;;;;;;6185582;23;19997;-88
2023/06/08 01:26:10;;;;;;;;;;;10.80;76.30;;;;;;6162804;23;20038;-88
2023/06/08 01:28:46;;;;;;;;;;;10.80;76.20;;;;;;6154760;23;19916;-87
2023/06/08 01:31:12;;;;;;;;;;;10.80;76.10;;;;;;6162856;23;19924;-88
2023/06/08 01:33:38;;;;;;;;;;;10.70;76.10;;;;;;6160315;23;19923;-87
2023/06/08 01:36:10;;;;;;;;;;;10.80;76.30;;;;;;6162296;23;20018;-89
2023/06/08 01:38:57;;;;;;;;;;;10.80;76.40;;;;;;6181368;23;19945;-86
2023/06/08 01:41:33;;;;;;;;;;;10.80;76.40;;;;;;6163269;23;19915;-87
2023/06/08 01:44:01;;;;;;;;;;;10.80;76.40;;;;;;6160955;23;19991;-87
2023/06/08 01:46:31;;;;;;;;;;;10.80;76.40;;;;;;6157770;23;19928;-89
2023/06/08 01:48:58;;;;;;;;;;;10.80;76.20;;;;;;6183409;23;19966;-88
2023/06/08 01:51:33;;;;;;;;;;;10.80;76.40;;;;;;6188600;23;19927;-87
2023/06/08 01:54:00;;;;;;;;;;;10.80;76.30;;;;;;6162372;23;19922;-87
2023/06/08 01:56:32;;;;;;;;;;;10.80;76.40;;;;;;6160694;23;19919;-90
2023/06/08 01:58:58;;;;;;;;;;;10.80;76.40;;;;;;6160555;23;19916;-87
2023/06/08 02:01:23;;;;;;;;;;;10.90;76.30;;;;;;6165033;23;19966;-87
2023/06/08 02:03:49;;;;;;;;;;;10.80;76.30;;;;;;6163145;23;20108;-87
2023/06/08 02:06:15;;;;;;;;;;;10.80;76.30;;;;;;6162179;23;19923;-89
2023/06/08 02:08:41;;;;;;;;;;;10.90;76.20;;;;;;6132941;23;19923;-87
2023/06/08 02:11:30;;;;;;;;;;;10.90;76.50;;;;;;6165090;23;20381;-86
2023/06/08 02:13:56;;;;;;;;;;;10.80;76.50;;;;;;6162265;23;19955;-90
2023/06/08 02:16:23;;;;;;;;;;;10.90;76.50;;;;;;6185624;23;19923;-89
2023/06/08 02:18:58;;;;;;;;;;;10.90;76.40;;;;;;6168924;23;19922;-88
2023/06/08 02:21:23;;;;;;;;;;;10.90;76.50;;;;;;6163380;23;19915;-86
2023/06/08 02:23:49;;;;;;;;;;;10.90;76.40;;;;;;6162635;23;19923;-88
2023/06/08 02:26:16;;;;;;;;;;;10.90;76.20;;;;;;6162418;23;19923;-91
2023/06/08 02:28:44;;;;;;;;;;;10.90;76.30;;;;;;6157317;23;20244;-87
2023/06/08 02:31:11;;;;;;;;;;;10.90;76.50;;;;;;6188741;23;19916;-86
2023/06/08 02:33:37;;;;;;;;;;;10.90;76.40;;;;;;6162771;23;19916;-87
2023/06/08 02:36:03;;;;;;;;;;;10.90;76.50;;;;;;6188690;23;19969;-87
2023/06/08 02:38:28;;;;;;;;;;;10.90;76.40;;;;;;6156493;23;19916;-88
2023/06/08 02:40:56;;;;;;;;;;;10.90;76.30;;;;;;6163685;23;20365;-88
2023/06/08 02:43:22;;;;;;;;;;;10.90;76.60;;;;;;6162502;23;19920;-89
2023/06/08 02:45:50;;;;;;;;;;;11.00;76.50;;;;;;6164321;23;19995;-88
2023/06/08 02:48:16;;;;;;;;;;;11.00;76.50;;;;;;6140531;23;20308;-87
2023/06/08 02:50:42;;;;;;;;;;;11.00;76.50;;;;;;6163753;23;20353;-87
2023/06/08 02:53:16;;;;;;;;;;;11.00;76.50;;;;;;6161886;23;19983;-88
2023/06/08 02:55:42;;;;;;;;;;;11.00;76.40;;;;;;6188272;23;20238;-87
2023/06/08 02:58:09;;;;;;;;;;;10.90;76.30;;;;;;6154420;23;19998;-88
2023/06/08 03:00:35;;;;;;;;;;;11.00;76.50;;;;;;6163904;23;20231;-87
2023/06/08 03:03:04;;;;;;;;;;;10.90;76.50;;;;;;6149944;23;19943;-88
2023/06/08 03:05:34;;;;;;;;;;;10.90;76.50;;;;;;6138845;23;19916;-86
2023/06/08 03:07:59;;;;;;;;;;;10.90;76.50;;;;;;6130878;23;19950;-87
2023/06/08 03:10:26;;;;;;;;;;;10.90;76.60;;;;;;6162768;23;19916;-88
2023/06/08 03:12:51;;;;;;;;;;;10.90;76.60;;;;;;6161922;23;19916;-87
2023/06/08 03:15:22;;;;;;;;;;;11.00;76.60;;;;;;6163546;23;20231;-87
2023/06/08 03:17:48;;;;;;;;;;;11.00;76.80;;;;;;6155542;23;19916;-87
2023/06/08 03:20:17;;;;;;;;;;;11.00;76.70;;;;;;6164175;23;19970;-88
2023/06/08 03:22:45;;;;;;;;;;;11.00;76.60;;;;;;6161418;23;19923;-87
2023/06/08 03:25:15;;;;;;;;;;;11.00;76.60;;;;;;6163886;23;19923;-87
2023/06/08 03:27:41;;;;;;;;;;;11.00;76.80;;;;;;6140685;23;20541;-87
2023/06/08 03:30:07;;;;;;;;;;;11.00;76.70;;;;;;6163753;23;19916;-88
2023/06/08 03:32:32;;;;;;;;;;;11.00;76.70;;;;;;6161937;23;19970;-87
2023/06/08 03:34:58;;;;;;;;;;;11.00;76.70;;;;;;6138890;23;19916;-87
2023/06/08 03:37:24;;;;;;;;;;;11.00;76.70;;;;;;6181103;23;19920;-90
2023/06/08 03:39:50;;;;;;;;;;;11.00;76.70;;;;;;6162482;23;20390;-87
2023/06/08 03:42:16;;;;;;;;;;;11.00;76.60;;;;;;6161936;23;19916;-87
2023/06/08 03:44:41;;;;;;;;;;;11.00;76.50;;;;;;6188161;23;19916;-87
2023/06/08 03:47:09;;;;;;;;;;;11.00;76.50;;;;;;6179005;23;19966;-87
2023/06/08 03:49:34;;;;;;;;;;;11.00;76.70;;;;;;6187969;23;19916;-87
2023/06/08 03:52:01;;;;;;;;;;;11.00;76.60;;;;;;6163081;23;19923;-90
2023/06/08 03:54:27;;;;;;;;;;;11.00;76.50;;;;;;6186752;23;19923;-87
2023/06/08 03:56:53;;;;;;;;;;;11.10;76.60;;;;;;6131589;23;19912;-87
2023/06/08 03:59:18;;;;;;;;;;;11.10;76.50;;;;;;6161585;23;19922;-88
2023/06/08 04:01:45;;;;;;;;;;;11.10;76.60;;;;;;6138383;23;19920;-87
2023/06/08 04:04:10;;;;;;;;;;;11.10;76.50;;;;;;6186520;23;20399;-88
2023/06/08 04:06:40;;;;;;;;;;;11.10;76.80;;;;;;6157288;23;19943;-91
2023/06/08 04:09:06;;;;;;;;;;;11.10;76.50;;;;;;6160354;23;19919;-85
2023/06/08 04:11:32;;;;;;;;;;;11.10;76.50;;;;;;6187730;23;19916;-86
2023/06/08 04:14:01;;;;;;;;;;;11.10;76.60;;;;;;6160980;23;19969;-86
2023/06/08 04:16:26;;;;;;;;;;;11.10;76.50;;;;;;6159258;23;20552;-89
2023/06/08 04:18:53;;;;;;;;;;;11.10;76.40;;;;;;6158373;23;19919;-86
2023/06/08 04:21:18;;;;;;;;;;;11.10;76.50;;;;;;6187631;23;19920;-86
2023/06/08 04:23:46;;;;;;;;;;;11.10;76.60;;;;;;6136149;23;19991;-88
2023/06/08 04:26:20;;;;;;;;;;;11.10;76.50;;;;;;6161828;23;19915;-87
2023/06/08 04:28:48;;;;;;;;;;;11.10;76.50;;;;;;6157176;23;20250;-86
2023/06/08 04:31:16;;;;;;;;;;;11.10;76.70;;;;;;6163075;23;19926;-87
2023/06/08 04:33:42;;;;;;;;;;;11.10;76.60;;;;;;6135956;23;19920;-86
2023/06/08 04:36:34;;;;;;;;;;;11.10;76.40;;;;;;6162213;23;19922;-89
2023/06/08 04:39:00;;;;;;;;;;;11.20;76.40;;;;;;6160148;23;19923;-86
2023/06/08 04:41:29;;;;;;;;;;;11.10;76.30;;;;;;6162930;23;19916;-86
2023/06/08 04:44:02;;;;;;;;;;;11.20;76.50;;;;;;6160567;23;19916;-88
2023/06/08 04:46:40;;;;;;;;;;;11.20;76.40;;;;;;6159515;23;19922;-89
2023/06/08 04:49:06;;;;;;;;;;;11.20;76.20;;;;;;6159554;23;19916;-86
2023/06/08 04:51:31;;;;;;;;;;;11.30;76.20;;;;;;6162853;23;20242;-86
2023/06/08 04:54:00;;;;;;;;;;;11.30;76.20;;;;;;6144520;23;19916;-86
2023/06/08 04:56:29;;;;;;;;;;;11.30;76.30;;;;;;6158731;23;20550;-90
2023/06/08 04:58:55;;;;;;;;;;;11.30;76.40;;;;;;6158254;23;19943;-87
2023/06/08 05:01:21;;;;;;;;;;;11.30;76.60;;;;;;6162085;23;19990;-86
2023/06/08 05:03:47;;;;;;;;;;;11.40;76.50;;;;;;6159681;23;19943;-85
2023/06/08 05:06:13;;;;;;;;;;;11.40;76.50;;;;;;6184159;23;20347;-89
2023/06/08 05:08:42;;;;;;;;;;;11.40;76.40;;;;;;6152890;23;19987;-88
2023/06/08 05:11:10;;;;;;;;;;;11.50;76.50;;;;;;6160124;23;20239;-87
2023/06/08 05:13:36;;;;;;;;;;;11.50;76.30;;;;;;6158872;23;19920;-86
2023/06/08 05:16:04;;;;;;;;;;;11.50;76.60;;;;;;6162966;23;19915;-88
2023/06/08 05:18:30;;;;;;;;;;;11.50;76.30;;;;;;6153582;23;19916;-87
2023/06/08 05:20:55;;;;;;;;;;;11.50;76.10;;;;;;6162423;23;20354;-87
2023/06/08 05:23:24;;;;;;;;;;;11.50;76.00;;;;;;6159265;23;19924;-89
2023/06/08 05:25:50;;;;;;;;;;;11.50;75.90;;;;;;6161788;23;19922;-86
2023/06/08 05:28:21;;;;;;;;;;;11.50;75.90;;;;;;6154405;23;19916;-87
2023/06/08 05:30:47;;;;;;;;;;;11.50;75.90;;;;;;6164155;23;19920;-86
2023/06/08 05:33:13;;;;;;;;;;;11.60;75.90;;;;;;6147418;23;19919;-88
2023/06/08 05:35:38;;;;;;;;;;;11.70;76.00;;;;;;6164996;23;19923;-87
2023/06/08 05:38:04;;;;;;;;;;;11.70;76.00;;;;;;6181662;23;20293;-86
2023/06/08 05:40:30;;;;;;;;;;;11.70;76.10;;;;;;6164235;23;19943;-86
2023/06/08 05:42:55;;;;;;;;;;;11.70;75.70;;;;;;6175671;23;19916;-86
2023/06/08 05:45:22;;;;;;;;;;;11.80;76.20;;;;;;6189907;23;19966;-86
2023/06/08 05:47:54;;;;;;;;;;;11.90;75.90;;;;;;6155602;23;19920;-88
2023/06/08 05:50:19;;;;;;;;;;;11.90;75.90;;;;;;6164741;23;19916;-88
2023/06/08 05:52:45;;;;;;;;;;;11.90;75.60;;;;;;6187730;23;19922;-88
2023/06/08 05:55:11;;;;;;;;;;;11.90;75.80;;;;;;6139554;23;19986;-88
2023/06/08 05:57:36;;;;;;;;;;;12.00;75.70;;;;;;6155564;23;20327;-88
2023/06/08 06:00:09;;;;;;;;;;;12.00;75.70;;;;;;6164292;23;19920;-89
2023/06/08 06:02:35;;;;;;;;;;;12.10;75.20;;;;;;6187757;23;19970;-87
2023/06/08 06:05:01;;;;;;;;;;;12.10;75.10;;;;;;6163903;23;19920;-86
2023/06/08 06:07:26;;;;;;;;;;;12.20;75.70;;;;;;6154720;23;19922;-88
2023/06/08 06:09:52;;;;;;;;;;;12.30;75.30;;;;;;6163906;23;19965;-86
2023/06/08 06:12:20;;;;;;;;;;;12.30;74.90;;;;;;6146578;23;19919;-89
2023/06/08 06:14:56;;;;;;;;;;;12.40;74.70;;;;;;6189324;23;19916;-88
2023/06/08 06:17:22;;;;;;;;;;;12.40;74.40;;;;;;6155822;23;19931;-88
2023/06/08 06:19:51;;;;;;;;;;;12.40;74.50;;;;;;6163891;23;19947;-89
2023/06/08 06:22:19;;;;;;;;;;;12.50;74.70;;;;;;6161306;23;20286;-89
2023/06/08 06:24:45;;;;;;;;;;;12.50;74.50;;;;;;6163862;23;19915;-88
2023/06/08 06:27:15;;;;;;;;;;;12.50;74.30;;;;;;6155424;23;19922;-88
2023/06/08 06:29:40;;;;;;;;;;;12.50;74.50;;;;;;6188311;23;20311;-87
2023/06/08 06:32:06;;;;;;;;;;;12.60;74.60;;;;;;6187432;23;19974;-87
2023/06/08 06:34:32;;;;;;;;;;;12.80;74.50;;;;;;6164038;23;20045;-86
2023/06/08 06:36:58;;;;;;;;;;;12.90;74.10;;;;;;6131652;23;19962;-87
2023/06/08 06:39:23;;;;;;;;;;;13.00;73.70;;;;;;6188748;23;19915;-87
2023/06/08 06:41:49;;;;;;;;;;;13.10;73.80;;;;;;6187879;23;20220;-88
2023/06/08 06:44:47;;;;;;;;;;;13.10;73.10;;;;;;6145995;23;19923;-94
2023/06/08 06:47:19;;;;;;;;;;;13.10;73.00;;;;;;6102163;23;19920;-89
2023/06/08 06:50:11;;;;;;;;;;;13.10;73.50;;;;;;6164282;23;19938;-91
2023/06/08 06:52:42;;;;;;;;;;;13.10;73.80;;;;;;6162917;23;20307;-88
2023/06/08 06:55:11;;;;;;;;;;;13.30;73.10;;;;;;6163006;23;19920;-89
2023/06/08 06:57:40;;;;;;;;;;;13.20;72.90;;;;;;6152414;23;19969;-88
2023/06/08 07:00:10;;;;;;;;;;;13.20;73.00;;;;;;6163470;23;19916;-89
2023/06/08 07:02:40;;;;;;;;;;;13.20;72.80;;;;;;6161902;23;19916;-86
2023/06/08 07:05:07;;;;;;;;;;;13.30;72.80;;;;;;6163375;23;19922;-87
2023/06/08 07:07:36;;;;;;;;;;;13.30;72.90;;;;;;6129372;23;19936;-87
2023/06/08 07:10:02;;;;;;;;;;;13.50;73.30;;;;;;6163472;23;19916;-86
2023/06/08 07:12:29;;;;;;;;;;;13.60;72.50;;;;;;6149866;23;19919;-86
2023/06/08 07:14:55;;;;;;;;;;;13.60;72.00;;;;;;6188554;23;19915;-88
2023/06/08 07:17:21;;;;;;;;;;;13.70;71.80;;;;;;6179506;23;19919;-86
2023/06/08 07:19:47;;;;;;;;;;;13.60;71.90;;;;;;6163676;23;19994;-88
2023/06/08 07:22:18;;;;;;;;;;;13.70;72.30;;;;;;6137694;23;19926;-87
2023/06/08 07:24:50;;;;;;;;;;;13.80;71.80;;;;;;6183254;23;19997;-89
2023/06/08 07:27:16;;;;;;;;;;;13.80;71.40;;;;;;6154463;23;19924;-87
2023/06/08 07:29:42;;;;;;;;;;;13.90;71.60;;;;;;6163199;23;19974;-87
2023/06/08 07:32:10;;;;;;;;;;;13.90;71.70;;;;;;6161858;23;19916;-88
2023/06/08 07:34:40;;;;;;;;;;;13.90;71.50;;;;;;6187045;23;19920;-88
2023/06/08 07:37:14;;;;;;;;;;;13.90;71.60;;;;;;6155655;23;19958;-87
2023/06/08 07:39:44;;;;;;;;;;;14.00;72.50;;;;;;6163013;23;19923;-87
2023/06/08 07:42:12;;;;;;;;;;;14.10;71.50;;;;;;6171028;23;19916;-88
2023/06/08 07:44:38;;;;;;;;;;;14.20;71.40;;;;;;6162926;23;19919;-88
2023/06/08 07:47:04;;;;;;;;;;;14.20;71.80;;;;;;6153593;23;20578;-88
2023/06/08 07:49:30;;;;;;;;;;;14.40;71.90;;;;;;6187832;23;20311;-90
2023/06/08 07:51:55;;;;;;;;;;;14.60;70.70;;;;;;6186862;23;20007;-89
2023/06/08 07:54:36;;;;;;;;;;;;;;;;;;;;;
2023/06/08 07:57:25;;;;;;;;;;;14.50;70.40;;;;;;6181189;23;19916;-93
2023/06/08 07:59:59;;;;;;;;;;;14.50;70.50;;;;;;6132530;23;19950;-86
2023/06/08 08:02:25;;;;;;;;;;;14.50;71.00;;;;;;6159976;23;19915;-86
2023/06/08 08:04:51;;;;;;;;;;;14.60;70.90;;;;;;6162991;23;19947;-88
2023/06/08 08:07:19;;;;;;;;;;;14.70;71.10;;;;;;6153289;23;19916;-88
2023/06/08 08:09:47;;;;;;;;;;;14.80;71.10;;;;;;6163240;23;19947;-87
2023/06/08 08:12:13;;;;;;;;;;;14.90;70.20;;;;;;6145746;23;19942;-86
2023/06/08 08:14:41;;;;;;;;;;;14.90;69.40;;;;;;6161620;23;20319;-87
2023/06/08 08:17:10;;;;;;;;;;;14.90;70.20;;;;;;6131434;23;19981;-86
2023/06/08 08:19:39;;;;;;;;;;;15.00;69.00;;;;;;6187302;23;19947;-88
2023/06/08 08:22:08;;;;;;;;;;;15.00;69.00;;;;;;6185963;23;19919;-87
2023/06/08 08:24:36;;;;;;;;;;;14.90;70.00;;;;;;6187584;23;19915;-88
2023/06/08 08:27:05;;;;;;;;;;;15.00;69.60;;;;;;6179805;23;19991;-86
2023/06/08 08:29:31;;;;;;;;;;;14.90;68.70;;;;;;6160640;23;19982;-88
2023/06/08 08:31:57;;;;;;;;;;;14.90;69.70;;;;;;6187360;23;19954;-86
2023/06/08 08:34:29;;;;;;;;;;;14.90;69.80;;;;;;6148996;23;20319;-87
2023/06/08 08:36:57;;;;;;;;;;;15.00;69.70;;;;;;6131478;23;19911;-88
2023/06/08 08:39:23;;;;;;;;;;;15.00;69.00;;;;;;6161909;23;19923;-87
2023/06/08 08:41:52;;;;;;;;;;;15.10;68.80;;;;;;6137581;23;19941;-87
2023/06/08 08:44:18;;;;;;;;;;;15.20;69.40;;;;;;6184812;23;20327;-87
2023/06/08 08:46:54;;;;;;;;;;;15.30;68.90;;;;;;6182807;23;19926;-90
2023/06/08 08:49:27;;;;;;;;;;;15.40;68.60;;;;;;6160058;23;20314;-87
2023/06/08 08:51:56;;;;;;;;;;;15.50;68.50;;;;;;6163605;23;20003;-86
2023/06/08 08:54:33;;;;;;;;;;;15.50;68.70;;;;;;6185247;23;19916;-87
2023/06/08 08:57:02;;;;;;;;;;;15.50;67.60;;;;;;6155185;23;19952;-87
2023/06/08 08:59:28;;;;;;;;;;;15.50;68.50;;;;;;6183300;23;19916;-87
2023/06/08 09:02:13;;;;;;;;;;;15.50;68.60;;;;;;6164091;23;19919;-85
2023/06/08 09:04:39;;;;;;;;;;;15.50;68.50;;;;;;6162756;23;19916;-87
2023/06/08 09:07:06;;;;;;;;;;;15.60;69.00;;;;;;6153092;23;19974;-87
2023/06/08 09:09:34;;;;;;;;;;;15.60;68.40;;;;;;6162125;23;19966;-87
2023/06/08 09:12:01;;;;;;;;;;;15.80;69.00;;;;;;6162607;23;19916;-86
2023/06/08 09:14:27;;;;;;;;;;;15.80;67.60;;;;;;6136075;23;19954;-88
2023/06/08 09:16:54;;;;;;;;;;;15.80;67.70;;;;;;6155101;23;19923;-87
2023/06/08 09:19:23;;;;;;;;;;;15.90;67.30;;;;;;6184943;23;20328;-87
2023/06/08 09:21:49;;;;;;;;;;;15.90;67.50;;;;;;6186415;23;19998;-89
2023/06/08 09:24:19;;;;;;;;;;;16.00;67.50;;;;;;6156946;23;19942;-90
2023/06/08 09:26:49;;;;;;;;;;;16.00;66.80;;;;;;6155569;23;19919;-89
2023/06/08 09:32:31;;;;;;;;;;;15.90;67.70;;;;;;6170425;23;20354;-87
2023/06/08 09:35:03;;;;;;;;;;;16.00;67.10;;;;;;6187058;23;19923;-86
2023/06/08 09:37:39;;;;;;;;;;;15.80;67.50;;;;;;6155838;23;19919;-89
2023/06/08 09:40:17;;;;;;;;;;;16.00;67.30;;;;;;6151497;23;19915;-89
2023/06/08 09:42:53;;;;;;;;;;;16.00;66.80;;;;;;6128130;23;19954;-87
2023/06/08 09:45:19;;;;;;;;;;;16.00;67.30;;;;;;6160180;23;19916;-88
2023/06/08 09:47:45;;;;;;;;;;;16.10;68.00;;;;;;6121819;23;19990;-88
2023/06/08 09:50:14;;;;;;;;;;;16.00;67.30;;;;;;6186239;23;19997;-87
2023/06/08 09:52:53;;;;;;;;;;;16.10;67.70;;;;;;6162410;23;20510;-90
2023/06/08 09:55:31;;;;;;;;;;;16.10;67.10;;;;;;6184548;23;19938;-88
2023/06/08 09:58:05;;;;;;;;;;;16.10;68.00;;;;;;6152849;23;19955;-90
2023/06/08 10:01:03;;;;;;;;;;;16.20;66.50;;;;;;6160715;23;19916;-91
2023/06/08 10:03:36;;;;;;;;;;;16.10;66.90;;;;;;6063932;23;19996;-87
2023/06/08 10:06:25;;;;;;;;;;;16.10;66.50;;;;;;6092676;23;19917;-87
2023/06/08 10:09:33;;;;;;;;;;;16.00;67.10;;;;;;6112131;23;19972;-91
2023/06/08 10:12:05;;;;;;;;;;;16.10;67.90;;;;;;6091751;23;20040;-87
2023/06/08 10:14:32;;;;;;;;;;;16.20;67.20;;;;;;6070723;23;19916;-87
2023/06/08 10:16:58;;;;;;;;;;;16.40;67.20;;;;;;6065138;23;20531;-88
2023/06/08 10:19:24;;;;;;;;;;;16.40;66.50;;;;;;6054559;23;19924;-90
2023/06/08 10:21:59;;;;;;;;;;;16.40;67.70;;;;;;6072838;23;19916;-89
2023/06/08 10:24:26;;;;;;;;;;;16.40;67.50;;;;;;6070658;23;20413;-87
2023/06/08 10:27:06;;;;;;;;;;;16.50;67.10;;;;;;6114331;23;20556;-86
2023/06/08 10:29:52;;;;;;;;;;;16.60;67.50;;;;;;6071810;23;19916;-88
2023/06/08 10:32:18;;;;;;;;;;;16.60;66.80;;;;;;6050434;23;19924;-87
2023/06/08 10:34:44;;;;;;;;;;;16.70;66.70;;;;;;6070933;23;19921;-88
2023/06/08 10:37:48;;;;;;;;;;;16.60;66.60;;;;;;6065845;23;19943;-90
2023/06/08 10:40:14;;;;;;;;;;;16.60;67.30;;;;;;6048698;23;19917;-89
2023/06/08 10:42:58;;;;;;;;;;;16.70;67.60;;;;;;6099873;23;19924;-88
2023/06/08 10:45:35;;;;;;;;;;;16.80;66.50;;;;;;6211825;23;19920;-88
2023/06/08 10:48:06;;;;;;;;;;;16.70;65.80;;;;;;6127442;23;19916;-88
2023/06/08 10:50:37;;;;;;;;;;;16.60;66.70;;;;;;6162707;23;19962;-87
2023/06/08 10:53:13;;;;;;;;;;;;;;;;;;;;;
2023/06/08 10:55:51;;;;;;;;;;;16.60;66.70;;;;;;6187008;23;19915;-88
2023/06/08 10:58:18;;;;;;;;;;;16.60;66.60;;;;;;6178495;23;19916;-88
2023/06/08 11:00:46;;;;;;;;;;;16.50;67.20;;;;;;6157149;23;19966;-90
2023/06/08 11:03:19;;;;;;;;;;;16.50;66.80;;;;;;6130352;23;19983;-93
2023/06/08 11:06:12;;;;;;;;;;;16.50;66.90;;;;;;6141452;23;19991;-90
2023/06/08 11:09:09;;;;;;;;;;;16.60;66.80;;;;;;6114131;23;19916;-93
2023/06/08 11:12:00;;;;;;;;;;;16.60;67.10;;;;;;6133989;23;20668;-93
2023/06/08 11:14:33;;;;;;;;;;;16.60;67.10;;;;;;6118146;23;19963;-89
2023/06/08 11:17:02;;;;;;;;;;;16.70;67.10;;;;;;6104330;23;19958;-88
2023/06/08 11:19:51;;;;;;;;;;;16.80;67.50;;;;;;6067972;23;19920;-89
2023/06/08 11:22:27;;;;;;;;;;;17.00;66.80;;;;;;6156486;23;20011;-89
2023/06/08 11:25:07;;;;;;;;;;;17.00;66.10;;;;;;6132888;23;20291;-90
2023/06/08 11:28:11;;;;;;;;;;;16.90;66.10;;;;;;6125054;23;19940;-89
2023/06/08 11:37:33;;;;;;;;;;;16.90;65.30;;;;;;6104116;23;19959;-89
2023/06/08 11:39:59;;;;;;;;;;;16.90;65.20;;;;;;6095698;23;19957;-87
2023/06/08 11:42:52;;;;;;;;;;;16.90;65.30;;;;;;6095479;23;19917;-89
2023/06/08 11:45:29;;;;;;;;;;;16.80;65.80;;;;;;6094784;23;19924;-89
2023/06/08 11:48:15;;;;;;;;;;;16.90;66.40;;;;;;6040699;23;20013;-89
2023/06/08 11:51:14;;;;;;;;;;;16.90;66.10;;;;;;6097092;23;19996;-91
2023/06/08 11:54:04;;;;;;;;;;;17.00;65.40;;;;;;6079479;23;19916;-90
2023/06/08 11:56:35;;;;;;;;;;;17.00;65.50;;;;;;6096421;23;19957;-92
2023/06/08 11:59:10;;;;;;;;;;;16.90;65.30;;;;;;6073707;23;19924;-92
2023/06/08 12:02:04;;;;;;;;;;;16.90;65.60;;;;;;6092779;23;19971;-90
2023/06/08 12:04:55;;;;;;;;;;;16.80;66.40;;;;;;6064259;23;19917;-89
2023/06/08 12:07:21;;;;;;;;;;;16.90;65.80;;;;;;6062417;23;19972;-88
2023/06/08 12:09:55;;;;;;;;;;;16.90;65.40;;;;;;6101002;23;20255;-91
2023/06/08 12:12:26;;;;;;;;;;;16.90;65.80;;;;;;6160143;23;19920;-89
2023/06/08 12:14:55;;;;;;;;;;;17.00;65.10;;;;;;6161350;23;19923;-90
2023/06/08 12:17:30;;;;;;;;;;;17.00;65.00;;;;;;6130351;23;20346;-92
2023/06/08 12:19:58;;;;;;;;;;;17.20;65.60;;;;;;6123057;23;19974;-91
2023/06/08 12:22:23;;;;;;;;;;;17.20;64.90;;;;;;6184955;23;20327;-89
2023/06/08 12:24:49;;;;;;;;;;;17.20;65.00;;;;;;6185666;23;19927;-89
2023/06/08 12:27:20;;;;;;;;;;;17.30;64.20;;;;;;6165312;23;20224;-91
2023/06/08 12:29:56;;;;;;;;;;;17.20;64.60;;;;;;6161698;23;19916;-89
2023/06/08 12:32:24;;;;;;;;;;;17.20;65.00;;;;;;6134024;23;19920;-88
2023/06/08 12:35:05;;;;;;;;;;;17.20;65.20;;;;;;6135908;23;19916;-89
2023/06/08 12:41:18;;;;;;;;;;;17.30;65.00;;;;;;6169766;23;19990;-91
2023/06/08 12:47:13;;;;;;;;;;;17.40;65.30;;;;;;6138112;23;19938;-94
2023/06/08 12:49:45;;;;;;;;;;;17.30;64.30;;;;;;6107701;23;19987;-90
2023/06/08 12:52:18;;;;;;;;;;;17.30;64.80;;;;;;6145496;23;19987;-90
2023/06/08 12:58:11;;;;;;;;;;;17.40;64.80;;;;;;6121417;23;19916;-89
2023/06/08 13:00:39;;;;;;;;;;;17.50;65.10;;;;;;6185687;23;19927;-92
2023/06/08 13:03:22;;;;;;;;;;;17.50;64.90;;;;;;6096302;23;19920;-89
2023/06/08 13:06:22;;;;;;;;;;;17.50;65.00;;;;;;6158969;23;20295;-89
2023/06/08 13:09:13;;;;;;;;;;;17.40;64.80;;;;;;6127772;23;19919;-91
2023/06/08 13:11:48;;;;;;;;;;;17.30;65.70;;;;;;6159556;23;19955;-91
2023/06/08 13:14:16;;;;;;;;;;;17.40;65.50;;;;;;6142337;23;20291;-88
2023/06/08 13:16:49;;;;;;;;;;;17.40;65.50;;;;;;6154943;23;20018;-91
2023/06/08 13:19:18;;;;;;;;;;;17.50;64.80;;;;;;6157547;23;19927;-89
2023/06/08 13:24:48;;;;;;;;;;;17.50;64.20;;;;;;6161033;23;20377;-88
2023/06/08 13:27:22;;;;;;;;;;;17.60;65.20;;;;;;6148414;23;19920;-92
2023/06/08 13:30:08;;;;;;;;;;;17.60;64.90;;;;;;6159781;23;19916;-92
2023/06/08 13:32:34;;;;;;;;;;;17.70;64.30;;;;;;6142181;23;19946;-91
2023/06/08 13:35:03;;;;;;;;;;;17.70;63.60;;;;;;6207635;23;19923;-88
2023/06/08 13:37:41;;;;;;;;;;;17.80;64.70;;;;;;6130203;23;19916;-91
2023/06/08 13:40:08;;;;;;;;;;;17.80;64.00;;;;;;6160214;23;19916;-88
2023/06/08 13:42:44;;;;;;;;;;;17.60;64.00;;;;;;6186104;23;19975;-89
2023/06/08 13:48:20;;;;;;;;;;;17.60;65.10;;;;;;6068214;23;19917;-90
2023/06/08 13:50:49;;;;;;;;;;;17.60;64.00;;;;;;6074022;23;19991;-88
2023/06/08 13:53:21;;;;;;;;;;;17.60;63.80;;;;;;6109244;23;20755;-89
2023/06/08 13:56:02;;;;;;;;;;;17.60;62.40;;;;;;6163289;23;19916;-89
2023/06/08 14:01:53;;;;;;;;;;;17.50;62.70;;;;;;6213259;23;20232;-89
2023/06/08 14:04:27;;;;;;;;;;;17.50;62.60;;;;;;6155856;23;19916;-89
2023/06/08 14:07:06;;;;;;;;;;;17.50;63.00;;;;;;6145556;23;19915;-89
2023/06/08 14:09:40;;;;;;;;;;;17.50;62.60;;;;;;6133568;23;19923;-91
2023/06/08 14:12:15;;;;;;;;;;;17.60;63.60;;;;;;6119145;23;19920;-92
2023/06/08 14:14:57;;;;;;;;;;;17.60;62.60;;;;;;6132216;23;19940;-89
2023/06/08 14:17:25;;;;;;;;;;;17.60;63.80;;;;;;6101407;23;20003;-88
2023/06/08 14:20:18;;;;;;;;;;;;;;;;;;;;;
2023/06/08 14:22:56;;;;;;;;;;;17.70;62.50;;;;;;6120639;23;19928;-90
2023/06/08 14:25:36;;;;;;;;;;;17.60;62.20;;;;;;6101344;23;20290;-91
2023/06/08 14:28:20;;;;;;;;;;;17.60;62.30;;;;;;6107978;23;19987;-89
2023/06/08 14:31:01;;;;;;;;;;;17.60;63.30;;;;;;6134204;23;20320;-90
2023/06/08 14:33:40;;;;;;;;;;;17.60;62.80;;;;;;6121947;23;19982;-90
2023/06/08 14:36:09;;;;;;;;;;;17.80;63.80;;;;;;6115243;23;20266;-92
2023/06/08 14:38:37;;;;;;;;;;;17.70;63.80;;;;;;6122769;23;20328;-90
2023/06/08 14:41:03;;;;;;;;;;;17.80;64.00;;;;;;6129260;23;19971;-88
2023/06/08 14:43:29;;;;;;;;;;;17.80;62.80;;;;;;6105854;23;19916;-86
2023/06/08 14:48:58;;;;;;;;;;;17.80;63.80;;;;;;6175423;23;20320;-88
2023/06/08 14:51:46;;;;;;;;;;;;;;;;;;;;;
2023/06/08 14:54:30;;;;;;;;;;;17.80;64.00;;;;;;6143985;23;19920;-91
2023/06/08 14:59:55;;;;;;;;;;;18.00;64.20;;;;;;6130221;23;19927;-90
2023/06/08 15:02:25;;;;;;;;;;;18.10;64.10;;;;;;6096333;23;19916;-92
2023/06/08 15:05:03;;;;;;;;;;;18.20;63.70;;;;;;6157988;23;19915;-92
2023/06/08 15:07:44;;;;;;;;;;;18.20;64.20;;;;;;6136501;23;19966;-89
2023/06/08 15:10:39;;;;;;;;;;;18.30;63.70;;;;;;6162857;23;20293;-90
2023/06/08 15:13:16;;;;;;;;;;;18.40;63.00;;;;;;6105413;23;19963;-89
2023/06/08 15:15:58;;;;;;;;;;;;;;;;;;;;;
2023/06/08 15:18:48;;;;;;;;;;;18.00;62.80;;;;;;6169556;23;19999;-88
2023/06/08 15:21:23;;;;;;;;;;;17.80;63.40;;;;;;6162677;23;19952;-89